Time;durP1;ratioP1;P1;durP2;ratioP2;P2;SDS_P1;SDS_P2;PMS_P1;PMS_P2;Temp;Humidity;BMP_temperature;BMP_pressure;BME280_temperature;BME280_humidity;BME280_pressure;Samples;Min_cycle;Max_cycle;Signal;HPM_P1;HPM_P2
2024/03/24 00:01:16;;;;;;;;;;;17.90;63.70;;;;;;4997202;28;1576;-71
2024/03/24 00:03:42;;;;;;;;;;;17.90;63.70;;;;;;5001581;28;1672;-70
2024/03/24 00:06:07;;;;;;;;;;;17.90;63.70;;;;;;5002065;28;1356;-71
2024/03/24 00:08:33;;;;;;;;;;;17.90;63.70;;;;;;5032555;28;1985;-71
2024/03/24 00:10:58;;;;;;;;;;;17.90;63.70;;;;;;5030711;28;1699;-72
2024/03/24 00:13:24;;;;;;;;;;;17.90;63.70;;;;;;5033256;28;1363;-71
2024/03/24 00:15:50;;;;;;;;;;;17.90;63.80;;;;;;4999983;28;1380;-71
2024/03/24 00:18:15;;;;;;;;;;;17.90;63.80;;;;;;5031390;28;1644;-70
2024/03/24 00:20:40;;;;;;;;;;;17.90;63.80;;;;;;5032818;28;1483;-70
2024/03/24 00:23:07;;;;;;;;;;;17.90;63.80;;;;;;5034364;28;1576;-69
2024/03/24 00:25:33;;;;;;;;;;;17.90;63.80;;;;;;5001143;28;1284;-70
2024/03/24 00:27:58;;;;;;;;;;;17.90;63.80;;;;;;4998996;28;1969;-69
2024/03/24 00:30:23;;;;;;;;;;;17.90;63.80;;;;;;4999837;28;1448;-70
2024/03/24 00:32:51;;;;;;;;;;;17.90;63.80;;;;;;5012489;28;1254;-70
2024/03/24 00:35:17;;;;;;;;;;;17.90;63.90;;;;;;5030562;28;1381;-69
2024/03/24 00:37:42;;;;;;;;;;;17.90;63.90;;;;;;4998574;28;946;-69
2024/03/24 00:40:09;;;;;;;;;;;17.90;63.90;;;;;;4998811;28;1197;-70
2024/03/24 00:42:35;;;;;;;;;;;17.90;63.90;;;;;;5031885;28;931;-70
2024/03/24 00:45:00;;;;;;;;;;;17.80;63.80;;;;;;4997836;28;1479;-69
2024/03/24 00:47:26;;;;;;;;;;;17.90;63.90;;;;;;4997169;28;1970;-70
2024/03/24 00:49:51;;;;;;;;;;;17.80;63.80;;;;;;4999054;28;1460;-70
2024/03/24 00:52:17;;;;;;;;;;;17.80;63.90;;;;;;5000127;28;1681;-70
2024/03/24 00:54:42;;;;;;;;;;;17.80;63.90;;;;;;4997414;28;1304;-70
2024/03/24 00:57:08;;;;;;;;;;;17.80;63.90;;;;;;5030032;28;1567;-70
2024/03/24 00:59:33;;;;;;;;;;;17.80;63.90;;;;;;4999511;28;1534;-70
2024/03/24 01:01:59;;;;;;;;;;;17.80;63.90;;;;;;4998345;28;1529;-70
2024/03/24 01:04:24;;;;;;;;;;;17.80;63.90;;;;;;4999000;28;1365;-69
2024/03/24 01:06:49;;;;;;;;;;;17.80;63.90;;;;;;4999093;28;1902;-69
2024/03/24 01:09:15;;;;;;;;;;;17.80;63.90;;;;;;5000630;28;1646;-69
2024/03/24 01:11:40;;;;;;;;;;;17.80;63.90;;;;;;4999030;28;1576;-70
2024/03/24 01:14:06;;;;;;;;;;;17.80;64.00;;;;;;4998563;28;1512;-69
2024/03/24 01:16:32;;;;;;;;;;;17.80;63.90;;;;;;5000741;28;1582;-69
2024/03/24 01:18:57;;;;;;;;;;;17.80;63.90;;;;;;4997531;28;1570;-69
2024/03/24 01:21:23;;;;;;;;;;;17.80;63.90;;;;;;5002029;28;1339;-69
2024/03/24 01:23:48;;;;;;;;;;;17.80;63.90;;;;;;5001995;28;1468;-69
2024/03/24 01:26:14;;;;;;;;;;;17.80;64.00;;;;;;4999677;28;1373;-68
2024/03/24 01:28:39;;;;;;;;;;;17.80;64.00;;;;;;5002224;28;1971;-68
2024/03/24 01:31:05;;;;;;;;;;;17.80;64.00;;;;;;5033893;28;1470;-69
2024/03/24 01:33:30;;;;;;;;;;;17.80;64.00;;;;;;5003115;28;1389;-68
2024/03/24 01:35:56;;;;;;;;;;;17.80;64.00;;;;;;5001863;28;1395;-69
2024/03/24 01:38:21;;;;;;;;;;;17.80;64.00;;;;;;5004472;28;1412;-72
2024/03/24 01:40:47;;;;;;;;;;;17.80;64.80;;;;;;5001575;28;1262;-71
2024/03/24 01:43:13;;;;;;;;;;;17.80;64.00;;;;;;5034841;28;1259;-71
2024/03/24 01:45:38;;;;;;;;;;;17.80;64.00;;;;;;5032524;28;1367;-71
2024/03/24 01:48:04;;;;;;;;;;;17.80;64.00;;;;;;5035815;28;1902;-70
2024/03/24 01:50:29;;;;;;;;;;;17.80;64.00;;;;;;5001868;28;1236;-70
2024/03/24 01:52:55;;;;;;;;;;;17.80;63.90;;;;;;5032084;28;1335;-69
2024/03/24 01:55:20;;;;;;;;;;;17.80;63.90;;;;;;5001035;28;1500;-70
2024/03/24 01:57:45;;;;;;;;;;;17.80;63.90;;;;;;5034343;28;1242;-71
2024/03/24 02:00:11;;;;;;;;;;;17.80;63.90;;;;;;5001225;28;1653;-71
2024/03/24 02:02:37;;;;;;;;;;;17.80;63.90;;;;;;5034056;28;1315;-71
2024/03/24 02:05:02;;;;;;;;;;;17.80;63.90;;;;;;5000989;28;1548;-71
2024/03/24 02:07:28;;;;;;;;;;;17.80;63.90;;;;;;5003539;28;1898;-68
2024/03/24 02:09:53;;;;;;;;;;;17.80;63.80;;;;;;5035522;28;1303;-70
2024/03/24 02:12:19;;;;;;;;;;;17.80;63.90;;;;;;5033464;28;1788;-70
2024/03/24 02:14:44;;;;;;;;;;;17.80;63.80;;;;;;5001381;28;1379;-71
2024/03/24 02:17:10;;;;;;;;;;;17.80;63.80;;;;;;4997371;28;1258;-71
2024/03/24 02:19:35;;;;;;;;;;;17.80;63.80;;;;;;5049049;28;1326;-69
2024/03/24 02:22:00;;;;;;;;;;;17.80;63.80;;;;;;5002397;28;1336;-70
2024/03/24 02:24:26;;;;;;;;;;;17.80;63.80;;;;;;5002782;28;1479;-71
2024/03/24 02:26:52;;;;;;;;;;;17.80;63.80;;;;;;5039091;28;1894;-70
2024/03/24 02:29:17;;;;;;;;;;;17.80;63.80;;;;;;5034533;28;1427;-70
2024/03/24 02:31:43;;;;;;;;;;;17.80;63.80;;;;;;5033901;28;1598;-70
2024/03/24 02:34:08;;;;;;;;;;;17.90;63.90;;;;;;5002444;28;1355;-69
2024/03/24 02:36:34;;;;;;;;;;;17.80;63.80;;;;;;5002809;28;1480;-70
2024/03/24 02:38:59;;;;;;;;;;;17.80;63.80;;;;;;5032399;28;1313;-72
2024/03/24 02:41:25;;;;;;;;;;;17.80;63.80;;;;;;4996867;28;1691;-70
2024/03/24 02:43:50;;;;;;;;;;;17.80;63.80;;;;;;5000350;28;1242;-70
2024/03/24 02:46:16;;;;;;;;;;;17.80;63.80;;;;;;5033902;28;1751;-71
2024/03/24 02:48:41;;;;;;;;;;;17.80;63.80;;;;;;4997372;28;1942;-70
2024/03/24 02:51:07;;;;;;;;;;;17.80;63.80;;;;;;5001110;28;1397;-71
2024/03/24 02:53:32;;;;;;;;;;;17.80;63.80;;;;;;5001959;28;1546;-70
2024/03/24 02:55:57;;;;;;;;;;;17.80;63.80;;;;;;5029428;28;1393;-71
2024/03/24 02:58:23;;;;;;;;;;;17.80;63.80;;;;;;4998359;28;1260;-71
2024/03/24 03:00:48;;;;;;;;;;;17.80;63.80;;;;;;5002552;28;1650;-71
2024/03/24 03:03:14;;;;;;;;;;;17.90;63.80;;;;;;4999562;28;1839;-71
2024/03/24 03:05:39;;;;;;;;;;;17.80;63.80;;;;;;5030298;28;1448;-70
2024/03/24 03:08:06;;;;;;;;;;;17.90;63.90;;;;;;5001098;28;1906;-70
2024/03/24 03:10:32;;;;;;;;;;;17.80;63.70;;;;;;5002284;28;1391;-71
2024/03/24 03:12:58;;;;;;;;;;;17.90;63.80;;;;;;5002270;28;1693;-70
2024/03/24 03:15:26;;;;;;;;;;;17.80;63.80;;;;;;5002476;28;1666;-70
2024/03/24 03:17:52;;;;;;;;;;;17.90;63.80;;;;;;5037534;28;1633;-69
2024/03/24 03:20:18;;;;;;;;;;;17.90;63.80;;;;;;5033602;28;1491;-69
2024/03/24 03:22:44;;;;;;;;;;;17.80;63.80;;;;;;5035271;28;1428;-69
2024/03/24 03:25:09;;;;;;;;;;;17.90;63.80;;;;;;5033073;28;1306;-70
2024/03/24 03:27:35;;;;;;;;;;;17.80;63.70;;;;;;5001947;28;1899;-70
2024/03/24 03:30:00;;;;;;;;;;;17.90;63.80;;;;;;5006674;28;1334;-70
2024/03/24 03:32:26;;;;;;;;;;;17.90;63.80;;;;;;5031593;28;939;-71
2024/03/24 03:34:53;;;;;;;;;;;17.90;64.50;;;;;;5034432;28;1306;-70
2024/03/24 03:37:20;;;;;;;;;;;17.80;63.70;;;;;;5035399;28;1629;-70
2024/03/24 03:39:45;;;;;;;;;;;17.90;63.80;;;;;;5020934;28;1227;-71
2024/03/24 03:42:11;;;;;;;;;;;17.90;63.80;;;;;;5005896;28;1246;-71
2024/03/24 03:44:36;;;;;;;;;;;17.80;63.70;;;;;;5050381;28;1417;-70
2024/03/24 03:47:01;;;;;;;;;;;17.90;63.80;;;;;;5031810;28;1959;-70
2024/03/24 03:49:27;;;;;;;;;;;17.90;63.80;;;;;;5008035;28;1336;-70
2024/03/24 03:51:56;;;;;;;;;;;17.90;63.80;;;;;;5019384;28;1112;-70
2024/03/24 03:54:22;;;;;;;;;;;17.90;63.80;;;;;;5034620;28;1458;-70
2024/03/24 03:56:48;;;;;;;;;;;17.90;63.80;;;;;;5037193;28;1265;-70
2024/03/24 03:59:13;;;;;;;;;;;17.90;63.80;;;;;;5003246;28;1141;-70
2024/03/24 04:01:40;;;;;;;;;;;17.90;64.50;;;;;;5000976;28;1262;-70
2024/03/24 04:04:05;;;;;;;;;;;17.90;63.80;;;;;;5003225;28;1452;-70
2024/03/24 04:06:31;;;;;;;;;;;17.80;63.70;;;;;;5003653;28;1251;-70
2024/03/24 04:08:56;;;;;;;;;;;17.80;63.70;;;;;;4996295;28;1898;-70
2024/03/24 04:11:22;;;;;;;;;;;17.80;63.70;;;;;;5019718;28;1649;-70
2024/03/24 04:13:48;;;;;;;;;;;17.90;63.80;;;;;;5004541;28;1345;-71
2024/03/24 04:16:14;;;;;;;;;;;17.90;63.80;;;;;;5001979;28;1499;-70
2024/03/24 04:18:39;;;;;;;;;;;17.80;63.70;;;;;;4997586;28;1426;-71
2024/03/24 04:21:05;;;;;;;;;;;17.80;63.80;;;;;;5037443;28;979;-70
2024/03/24 04:23:30;;;;;;;;;;;17.80;63.70;;;;;;5001422;28;770;-70
2024/03/24 04:25:56;;;;;;;;;;;17.80;63.70;;;;;;5005714;28;1281;-70
2024/03/24 04:28:21;;;;;;;;;;;17.80;63.80;;;;;;5036113;28;1942;-70
2024/03/24 04:30:47;;;;;;;;;;;17.80;63.70;;;;;;5002793;28;975;-70
2024/03/24 04:33:12;;;;;;;;;;;17.90;63.80;;;;;;5034070;28;1585;-70
2024/03/24 04:35:38;;;;;;;;;;;17.80;63.80;;;;;;5002591;28;1780;-70
2024/03/24 04:38:03;;;;;;;;;;;17.90;63.80;;;;;;4999931;28;1365;-71
2024/03/24 04:40:29;;;;;;;;;;;17.80;63.70;;;;;;5035450;28;773;-70
2024/03/24 04:42:54;;;;;;;;;;;17.80;63.80;;;;;;5002571;28;1543;-70
2024/03/24 04:45:22;;;;;;;;;;;17.80;63.70;;;;;;5019082;28;1650;-70
2024/03/24 04:47:48;;;;;;;;;;;17.80;63.80;;;;;;4999647;28;1898;-70
2024/03/24 04:50:14;;;;;;;;;;;17.80;63.80;;;;;;4998755;28;1387;-71
2024/03/24 04:52:39;;;;;;;;;;;17.80;63.80;;;;;;4999031;28;1314;-70
2024/03/24 04:55:05;;;;;;;;;;;17.80;63.70;;;;;;5004690;28;1464;-70
2024/03/24 04:57:30;;;;;;;;;;;17.80;63.70;;;;;;5003597;28;1383;-71
2024/03/24 04:59:56;;;;;;;;;;;17.80;63.80;;;;;;5033264;28;1403;-70
2024/03/24 05:02:21;;;;;;;;;;;17.80;63.70;;;;;;5006339;28;1845;-70
2024/03/24 05:04:48;;;;;;;;;;;17.80;63.80;;;;;;5002161;28;1371;-71
2024/03/24 05:07:14;;;;;;;;;;;17.80;63.80;;;;;;5037710;28;1907;-70
2024/03/24 05:09:39;;;;;;;;;;;17.80;63.80;;;;;;5009493;28;1252;-70
2024/03/24 05:12:05;;;;;;;;;;;17.80;63.80;;;;;;5034773;28;1331;-70
2024/03/24 05:14:30;;;;;;;;;;;17.80;63.70;;;;;;5037211;28;1300;-70
2024/03/24 05:16:56;;;;;;;;;;;17.90;63.70;;;;;;5005900;28;1236;-70
2024/03/24 05:19:23;;;;;;;;;;;17.90;63.70;;;;;;5003745;28;1522;-70
2024/03/24 05:21:48;;;;;;;;;;;17.90;63.60;;;;;;5039571;28;1253;-70
2024/03/24 05:24:14;;;;;;;;;;;17.90;63.50;;;;;;5038307;28;1368;-70
2024/03/24 05:26:41;;;;;;;;;;;17.90;63.40;;;;;;5010822;28;1961;-70
2024/03/24 05:29:06;;;;;;;;;;;18.00;63.40;;;;;;5007086;28;1352;-70
2024/03/24 05:31:32;;;;;;;;;;;18.00;63.30;;;;;;5006356;28;836;-70
2024/03/24 05:33:57;;;;;;;;;;;18.00;63.20;;;;;;5038765;28;1291;-70
2024/03/24 05:36:23;;;;;;;;;;;18.00;63.10;;;;;;5009527;28;1089;-70
2024/03/24 05:38:49;;;;;;;;;;;18.00;63.00;;;;;;5040632;28;1449;-71
2024/03/24 05:41:14;;;;;;;;;;;18.10;63.00;;;;;;5034414;28;1204;-70
2024/03/24 05:43:40;;;;;;;;;;;18.10;62.90;;;;;;5007592;28;1230;-70
2024/03/24 05:46:06;;;;;;;;;;;18.10;62.90;;;;;;5005072;28;1412;-70
2024/03/24 05:48:31;;;;;;;;;;;18.10;62.80;;;;;;5038098;28;1981;-70
2024/03/24 05:51:00;;;;;;;;;;;18.10;62.70;;;;;;5005973;28;951;-70
2024/03/24 05:53:25;;;;;;;;;;;18.10;62.70;;;;;;5038817;28;1376;-70
2024/03/24 05:55:51;;;;;;;;;;;18.20;62.70;;;;;;5038623;28;1459;-70
2024/03/24 05:58:17;;;;;;;;;;;18.20;62.70;;;;;;5039257;28;1744;-70
2024/03/24 06:00:43;;;;;;;;;;;18.20;62.60;;;;;;5004167;28;1485;-70
2024/03/24 06:03:08;;;;;;;;;;;18.20;62.60;;;;;;5005051;28;1357;-70
2024/03/24 06:05:36;;;;;;;;;;;18.20;62.50;;;;;;5002142;28;1264;-70
2024/03/24 06:08:01;;;;;;;;;;;18.20;62.50;;;;;;5005196;28;1981;-70
2024/03/24 06:10:27;;;;;;;;;;;18.20;62.50;;;;;;5000552;28;1172;-70
2024/03/24 06:12:53;;;;;;;;;;;18.20;62.40;;;;;;5025983;28;1404;-70
2024/03/24 06:15:18;;;;;;;;;;;18.20;62.40;;;;;;5004613;28;1281;-70
2024/03/24 06:17:44;;;;;;;;;;;18.20;62.40;;;;;;5004648;28;884;-70
2024/03/24 06:20:09;;;;;;;;;;;18.20;62.40;;;;;;5008056;28;966;-70
2024/03/24 06:22:35;;;;;;;;;;;18.20;62.40;;;;;;5009024;28;1617;-70
2024/03/24 06:25:00;;;;;;;;;;;18.20;62.30;;;;;;5007927;28;1328;-71
2024/03/24 06:27:26;;;;;;;;;;;18.20;62.30;;;;;;5022472;28;1906;-71
2024/03/24 06:29:51;;;;;;;;;;;18.20;62.30;;;;;;4997082;28;1726;-72
2024/03/24 06:32:16;;;;;;;;;;;18.20;62.30;;;;;;4998887;28;1337;-71
2024/03/24 06:34:42;;;;;;;;;;;18.30;62.40;;;;;;5030588;28;1450;-72
2024/03/24 06:37:07;;;;;;;;;;;18.20;62.30;;;;;;5008069;28;1608;-73
2024/03/24 06:39:33;;;;;;;;;;;18.20;62.30;;;;;;5031988;28;1387;-73
2024/03/24 06:42:04;;;;;;;;;;;18.20;62.30;;;;;;5001298;28;1192;-73
2024/03/24 06:44:35;;;;;;;;;;;18.20;62.40;;;;;;5032662;28;1280;-73
2024/03/24 06:47:01;;;;;;;;;;;18.20;62.40;;;;;;5037387;28;1948;-73
2024/03/24 06:49:26;;;;;;;;;;;18.20;62.40;;;;;;5009983;28;939;-72
2024/03/24 06:51:52;;;;;;;;;;;18.20;62.40;;;;;;5001629;28;1341;-72
2024/03/24 06:54:18;;;;;;;;;;;18.20;62.40;;;;;;5016718;28;1542;-73
2024/03/24 06:56:43;;;;;;;;;;;18.20;62.40;;;;;;5001322;28;1503;-73
2024/03/24 06:59:09;;;;;;;;;;;18.20;62.50;;;;;;5032340;28;1269;-72
2024/03/24 07:01:36;;;;;;;;;;;18.20;62.40;;;;;;5003036;28;1212;-71
2024/03/24 07:04:02;;;;;;;;;;;18.20;62.40;;;;;;5001083;28;1391;-71
2024/03/24 07:06:27;;;;;;;;;;;18.20;62.50;;;;;;5017530;28;1453;-71
2024/03/24 07:08:52;;;;;;;;;;;18.20;62.50;;;;;;4997347;28;1977;-72
2024/03/24 07:11:18;;;;;;;;;;;18.20;62.50;;;;;;5033501;28;1261;-71
2024/03/24 07:13:43;;;;;;;;;;;18.20;62.50;;;;;;5002170;28;1347;-71
2024/03/24 07:16:09;;;;;;;;;;;18.20;62.50;;;;;;4999363;28;1375;-70
2024/03/24 07:18:34;;;;;;;;;;;18.20;62.50;;;;;;5030183;28;1349;-71
2024/03/24 07:21:00;;;;;;;;;;;18.20;62.60;;;;;;5001609;28;1564;-71
2024/03/24 07:23:26;;;;;;;;;;;18.20;62.50;;;;;;5005924;28;1550;-70
2024/03/24 07:25:51;;;;;;;;;;;18.20;62.60;;;;;;5036302;28;1403;-70
2024/03/24 07:28:17;;;;;;;;;;;18.20;62.60;;;;;;5001178;28;1898;-70
2024/03/24 07:30:42;;;;;;;;;;;18.20;62.70;;;;;;5001690;28;1318;-70
2024/03/24 07:33:08;;;;;;;;;;;18.20;63.40;;;;;;5001452;28;1337;-70
2024/03/24 07:35:33;;;;;;;;;;;18.10;62.60;;;;;;5001081;28;1548;-70
2024/03/24 07:37:59;;;;;;;;;;;18.10;62.60;;;;;;5001351;28;1255;-70
2024/03/24 07:40:24;;;;;;;;;;;18.10;62.70;;;;;;5000121;28;1692;-70
2024/03/24 07:42:50;;;;;;;;;;;18.10;62.70;;;;;;4999841;28;1246;-70
2024/03/24 07:45:16;;;;;;;;;;;18.10;62.70;;;;;;5018336;28;1415;-70
2024/03/24 07:47:42;;;;;;;;;;;18.10;62.70;;;;;;4999877;28;1902;-71
2024/03/24 07:50:08;;;;;;;;;;;18.10;62.70;;;;;;4998160;28;1532;-70
2024/03/24 07:52:33;;;;;;;;;;;18.10;62.70;;;;;;4999734;28;1101;-71
2024/03/24 07:54:59;;;;;;;;;;;18.10;62.70;;;;;;4998651;28;1485;-71
2024/03/24 07:57:24;;;;;;;;;;;18.10;62.70;;;;;;5030035;28;1792;-70
2024/03/24 07:59:50;;;;;;;;;;;18.10;62.80;;;;;;4998703;28;1282;-71
2024/03/24 08:02:15;;;;;;;;;;;18.10;62.80;;;;;;5001330;28;1974;-71
2024/03/24 08:04:41;;;;;;;;;;;18.10;62.80;;;;;;4998217;28;2111;-71
2024/03/24 08:07:06;;;;;;;;;;;18.10;62.80;;;;;;4997243;28;1960;-71
2024/03/24 08:09:32;;;;;;;;;;;18.10;62.80;;;;;;5000246;28;1248;-71
2024/03/24 08:11:57;;;;;;;;;;;18.10;62.80;;;;;;5030556;28;1661;-73
2024/03/24 08:14:23;;;;;;;;;;;18.10;62.80;;;;;;5030796;28;1484;-71
2024/03/24 08:16:48;;;;;;;;;;;18.10;62.90;;;;;;5017560;28;2266;-71
2024/03/24 08:19:14;;;;;;;;;;;18.10;62.90;;;;;;4998790;28;1525;-72
2024/03/24 08:21:39;;;;;;;;;;;18.10;62.90;;;;;;5000115;28;1789;-72
2024/03/24 08:24:05;;;;;;;;;;;18.10;63.60;;;;;;5003328;28;1871;-72
2024/03/24 08:26:30;;;;;;;;;;;18.10;63.00;;;;;;5002081;28;1338;-71
2024/03/24 08:28:56;;;;;;;;;;;18.10;62.90;;;;;;5001566;28;1997;-71
2024/03/24 08:31:24;;;;;;;;;;;18.10;63.00;;;;;;5001613;28;1352;-71
2024/03/24 08:33:49;;;;;;;;;;;18.00;62.90;;;;;;5001052;28;1584;-72
2024/03/24 08:36:16;;;;;;;;;;;18.10;63.00;;;;;;5031889;28;1302;-71
2024/03/24 08:38:41;;;;;;;;;;;18.10;63.00;;;;;;5031441;28;1177;-71
2024/03/24 08:41:07;;;;;;;;;;;18.10;63.10;;;;;;5006494;28;1787;-72
2024/03/24 08:43:32;;;;;;;;;;;18.10;63.10;;;;;;4996727;28;1216;-72
2024/03/24 08:45:58;;;;;;;;;;;18.00;63.10;;;;;;5032933;28;1462;-71
2024/03/24 08:48:23;;;;;;;;;;;18.00;63.10;;;;;;5000269;28;1906;-71
2024/03/24 08:50:49;;;;;;;;;;;18.10;63.90;;;;;;4998276;28;1662;-72
2024/03/24 08:53:14;;;;;;;;;;;18.00;63.00;;;;;;4995923;28;1395;-71
2024/03/24 08:55:40;;;;;;;;;;;18.00;63.80;;;;;;4998101;28;1257;-71
2024/03/24 08:58:06;;;;;;;;;;;18.10;63.10;;;;;;4999791;28;1200;-71
2024/03/24 09:00:33;;;;;;;;;;;18.10;63.10;;;;;;5031938;28;904;-71
2024/03/24 09:02:58;;;;;;;;;;;18.00;63.10;;;;;;5030352;28;888;-72
2024/03/24 09:05:24;;;;;;;;;;;18.00;63.00;;;;;;4999513;28;1578;-71
2024/03/24 09:07:49;;;;;;;;;;;18.00;63.00;;;;;;4998736;28;1906;-71
2024/03/24 09:10:15;;;;;;;;;;;18.10;63.10;;;;;;4999115;28;1317;-72
2024/03/24 09:12:40;;;;;;;;;;;18.00;63.00;;;;;;4999052;28;1280;-71
2024/03/24 09:15:06;;;;;;;;;;;18.10;63.10;;;;;;5028133;28;1518;-71
2024/03/24 09:17:31;;;;;;;;;;;18.10;63.00;;;;;;4998694;28;1281;-71
2024/03/24 09:19:57;;;;;;;;;;;18.10;63.00;;;;;;4996288;28;1478;-72
2024/03/24 09:22:22;;;;;;;;;;;18.10;63.00;;;;;;4999724;28;1406;-72
2024/03/24 09:24:48;;;;;;;;;;;18.10;63.00;;;;;;5031647;28;1597;-72
2024/03/24 09:27:13;;;;;;;;;;;18.10;63.00;;;;;;5002235;28;1941;-71
2024/03/24 09:29:39;;;;;;;;;;;18.10;62.90;;;;;;4996798;28;1346;-71
2024/03/24 09:32:05;;;;;;;;;;;18.10;62.90;;;;;;4999884;28;1193;-71
2024/03/24 09:34:31;;;;;;;;;;;18.10;62.90;;;;;;5031805;28;1339;-72
2024/03/24 09:36:56;;;;;;;;;;;18.10;62.80;;;;;;4997360;28;1349;-72
2024/03/24 09:39:22;;;;;;;;;;;18.10;62.80;;;;;;5031212;28;1596;-71
2024/03/24 09:41:47;;;;;;;;;;;18.10;62.80;;;;;;4998580;28;1363;-71
2024/03/24 09:44:13;;;;;;;;;;;18.10;62.80;;;;;;5002466;28;1301;-71
2024/03/24 09:46:42;;;;;;;;;;;18.10;62.70;;;;;;5018695;28;1604;-71
2024/03/24 09:49:12;;;;;;;;;;;18.10;62.70;;;;;;5034969;28;1985;-72
2024/03/24 09:51:42;;;;;;;;;;;18.10;62.70;;;;;;5005016;28;1337;-71
2024/03/24 09:54:11;;;;;;;;;;;18.20;62.70;;;;;;5033349;28;1404;-72
2024/03/24 09:56:37;;;;;;;;;;;18.10;62.70;;;;;;5033023;28;1578;-71
2024/03/24 09:59:03;;;;;;;;;;;18.10;62.70;;;;;;5031138;28;1303;-71
2024/03/24 10:01:29;;;;;;;;;;;18.10;62.70;;;;;;5003607;28;1277;-72
2024/03/24 10:03:54;;;;;;;;;;;18.10;63.50;;;;;;5001209;28;1481;-72
2024/03/24 10:06:22;;;;;;;;;;;18.10;62.70;;;;;;5032418;28;1544;-71
2024/03/24 10:08:48;;;;;;;;;;;18.10;62.80;;;;;;5000717;28;1991;-71
2024/03/24 10:11:26;;;;;;;;;;;18.10;62.80;;;;;;5007554;28;1486;-71
2024/03/24 10:13:52;;;;;;;;;;;18.10;62.80;;;;;;5000603;28;1142;-71
2024/03/24 10:16:18;;;;;;;;;;;18.10;62.80;;;;;;5003369;28;1440;-72
2024/03/24 10:18:43;;;;;;;;;;;18.10;62.80;;;;;;5035644;28;1607;-71
2024/03/24 10:21:09;;;;;;;;;;;18.10;62.80;;;;;;5031415;28;1292;-72
2024/03/24 10:23:35;;;;;;;;;;;18.10;62.80;;;;;;5030334;28;1481;-72
2024/03/24 10:26:01;;;;;;;;;;;18.10;62.80;;;;;;5032592;28;1358;-71
2024/03/24 10:28:27;;;;;;;;;;;18.10;62.80;;;;;;5005748;28;1910;-71
2024/03/24 10:30:53;;;;;;;;;;;18.10;62.90;;;;;;5004668;28;1169;-71
2024/03/24 10:33:18;;;;;;;;;;;18.10;62.80;;;;;;5017156;28;1362;-71
2024/03/24 10:35:47;;;;;;;;;;;18.10;62.90;;;;;;5032067;28;1443;-71
2024/03/24 10:38:12;;;;;;;;;;;18.10;62.90;;;;;;5013754;28;1319;-71
2024/03/24 10:40:38;;;;;;;;;;;18.10;62.90;;;;;;5001746;28;1069;-70
2024/03/24 10:43:03;;;;;;;;;;;18.10;62.80;;;;;;5041360;28;1197;-70
2024/03/24 10:45:29;;;;;;;;;;;18.10;62.80;;;;;;5036105;28;1363;-70
2024/03/24 10:47:57;;;;;;;;;;;18.10;62.80;;;;;;5035789;28;1965;-71
2024/03/24 10:50:23;;;;;;;;;;;18.10;62.80;;;;;;5035532;28;1439;-70
2024/03/24 10:52:48;;;;;;;;;;;18.10;62.70;;;;;;5036629;28;1280;-70
2024/03/24 10:55:14;;;;;;;;;;;18.10;62.70;;;;;;5037133;28;1691;-70
2024/03/24 10:57:39;;;;;;;;;;;18.10;62.70;;;;;;5036189;28;1367;-70
2024/03/24 11:00:07;;;;;;;;;;;18.10;62.70;;;;;;5034880;28;1389;-71
2024/03/24 11:02:33;;;;;;;;;;;18.20;62.70;;;;;;5003208;28;1422;-70
2024/03/24 11:04:58;;;;;;;;;;;18.20;62.70;;;;;;5003501;28;1604;-70
2024/03/24 11:07:24;;;;;;;;;;;18.20;62.70;;;;;;5034459;28;1914;-70
2024/03/24 11:09:51;;;;;;;;;;;18.20;62.60;;;;;;5027191;28;1401;-71
2024/03/24 11:12:16;;;;;;;;;;;18.20;62.60;;;;;;5036995;28;1246;-70
2024/03/24 11:14:42;;;;;;;;;;;18.20;62.60;;;;;;5033105;28;1225;-70
2024/03/24 11:17:07;;;;;;;;;;;18.20;62.50;;;;;;5039972;28;1377;-71
2024/03/24 11:19:33;;;;;;;;;;;18.20;62.50;;;;;;5036422;28;1295;-70
2024/03/24 11:21:58;;;;;;;;;;;18.20;63.30;;;;;;5004336;28;1712;-70
2024/03/24 11:24:27;;;;;;;;;;;18.20;62.60;;;;;;5002535;28;1245;-70
2024/03/24 11:26:54;;;;;;;;;;;18.20;62.60;;;;;;5001219;28;1906;-71
2024/03/24 11:29:38;;;;;;;;;;;18.20;62.60;;;;;;5001198;28;1238;-71
2024/03/24 11:32:05;;;;;;;;;;;18.20;62.60;;;;;;5003408;28;988;-71
2024/03/24 11:34:30;;;;;;;;;;;18.20;62.60;;;;;;5004082;28;1363;-71
2024/03/24 11:36:55;;;;;;;;;;;18.20;62.60;;;;;;5032873;28;1354;-71
2024/03/24 11:39:21;;;;;;;;;;;18.20;62.70;;;;;;5031474;28;2334;-71
2024/03/24 11:41:53;;;;;;;;;;;18.20;62.60;;;;;;5031081;28;1012;-71
2024/03/24 11:44:18;;;;;;;;;;;18.20;62.60;;;;;;5015127;28;1489;-71
2024/03/24 11:46:44;;;;;;;;;;;18.20;62.70;;;;;;5016440;28;1492;-71
2024/03/24 11:49:10;;;;;;;;;;;18.20;62.60;;;;;;5032319;28;1894;-70
2024/03/24 11:51:36;;;;;;;;;;;18.20;62.70;;;;;;5030893;28;1321;-71
2024/03/24 11:54:01;;;;;;;;;;;18.20;62.60;;;;;;4999154;28;1285;-71
2024/03/24 11:56:27;;;;;;;;;;;18.20;62.60;;;;;;5031998;28;1395;-70
2024/03/24 11:58:55;;;;;;;;;;;18.20;62.50;;;;;;5010133;28;1168;-70
2024/03/24 12:01:20;;;;;;;;;;;18.20;62.50;;;;;;5007331;28;1201;-71
2024/03/24 12:03:46;;;;;;;;;;;18.20;62.50;;;;;;5029550;28;955;-71
2024/03/24 12:06:13;;;;;;;;;;;18.20;62.50;;;;;;5030405;28;1429;-71
2024/03/24 12:08:42;;;;;;;;;;;18.20;62.50;;;;;;5032769;28;1906;-71
2024/03/24 12:11:07;;;;;;;;;;;18.20;62.50;;;;;;5037111;28;1437;-70
2024/03/24 12:13:33;;;;;;;;;;;18.20;62.40;;;;;;5039527;28;1349;-70
2024/03/24 12:15:58;;;;;;;;;;;18.20;62.40;;;;;;5032459;28;1295;-70
2024/03/24 12:18:24;;;;;;;;;;;18.20;62.40;;;;;;5005065;28;867;-69
2024/03/24 12:20:49;;;;;;;;;;;18.20;62.40;;;;;;5036824;28;1273;-70
2024/03/24 12:23:15;;;;;;;;;;;18.20;62.30;;;;;;5017783;28;1342;-70
2024/03/24 12:25:44;;;;;;;;;;;18.20;62.30;;;;;;5001118;28;1377;-70
2024/03/24 12:28:14;;;;;;;;;;;18.20;62.30;;;;;;4998945;28;1911;-70
2024/03/24 12:30:40;;;;;;;;;;;18.20;62.30;;;;;;5026836;28;1609;-70
2024/03/24 12:33:05;;;;;;;;;;;18.30;63.10;;;;;;4997009;28;1197;-69
2024/03/24 12:35:31;;;;;;;;;;;18.20;62.20;;;;;;4998579;28;1359;-70
2024/03/24 12:37:57;;;;;;;;;;;18.30;62.30;;;;;;5028812;28;1771;-69
2024/03/24 12:40:24;;;;;;;;;;;18.30;62.30;;;;;;5000086;28;1331;-70
2024/03/24 12:42:50;;;;;;;;;;;18.30;62.30;;;;;;4996806;28;1120;-70
2024/03/24 12:45:15;;;;;;;;;;;18.30;62.30;;;;;;5029813;28;1448;-70
2024/03/24 12:47:41;;;;;;;;;;;18.30;62.20;;;;;;4996486;28;1977;-70
2024/03/24 12:50:25;;;;;;;;;;;18.30;62.20;;;;;;4999339;28;1552;-70
2024/03/24 12:53:02;;;;;;;;;;;18.30;62.20;;;;;;5002094;28;1319;-69
2024/03/24 12:55:28;;;;;;;;;;;18.20;62.20;;;;;;5031493;28;1796;-70
2024/03/24 12:57:54;;;;;;;;;;;18.30;62.30;;;;;;5028794;28;1333;-70
2024/03/24 13:00:20;;;;;;;;;;;18.20;62.20;;;;;;5033056;28;1334;-70
2024/03/24 13:02:46;;;;;;;;;;;18.30;62.30;;;;;;4999056;28;1215;-70
2024/03/24 13:05:12;;;;;;;;;;;18.20;62.30;;;;;;4998901;28;1380;-70
2024/03/24 13:07:38;;;;;;;;;;;18.20;62.30;;;;;;5027438;28;1975;-71
2024/03/24 13:10:03;;;;;;;;;;;18.20;62.30;;;;;;5031602;28;1349;-70
2024/03/24 13:12:29;;;;;;;;;;;18.20;62.40;;;;;;5030398;28;1377;-70
2024/03/24 13:14:54;;;;;;;;;;;18.20;62.40;;;;;;5001625;28;1442;-70
2024/03/24 13:17:26;;;;;;;;;;;18.20;62.40;;;;;;5002619;28;1699;-71
2024/03/24 13:19:53;;;;;;;;;;;18.20;62.50;;;;;;5032432;28;1407;-70
2024/03/24 13:22:19;;;;;;;;;;;18.20;62.50;;;;;;5028586;28;1474;-70
2024/03/24 13:24:48;;;;;;;;;;;18.20;62.50;;;;;;5001182;28;1284;-70
2024/03/24 13:27:15;;;;;;;;;;;18.20;62.50;;;;;;5034586;28;1973;-70
2024/03/24 13:29:40;;;;;;;;;;;18.20;62.50;;;;;;5036186;28;1288;-70
2024/03/24 13:32:06;;;;;;;;;;;18.20;62.50;;;;;;5001248;28;1329;-70
2024/03/24 13:34:31;;;;;;;;;;;18.20;62.50;;;;;;5003301;28;1321;-70
2024/03/24 13:36:59;;;;;;;;;;;18.20;62.50;;;;;;5033307;28;1606;-70
2024/03/24 13:39:32;;;;;;;;;;;18.20;62.50;;;;;;5002057;28;1477;-70
2024/03/24 13:42:03;;;;;;;;;;;18.20;62.50;;;;;;5031325;28;1534;-70
2024/03/24 13:44:38;;;;;;;;;;;18.20;62.40;;;;;;5006339;28;1751;-70
2024/03/24 13:47:04;;;;;;;;;;;18.20;62.40;;;;;;4999730;28;1903;-70
2024/03/24 13:49:30;;;;;;;;;;;18.20;62.40;;;;;;5002555;28;2199;-70
2024/03/24 13:51:55;;;;;;;;;;;18.20;62.30;;;;;;5018186;28;1529;-70
2024/03/24 13:54:21;;;;;;;;;;;18.20;62.30;;;;;;5035046;28;1308;-70
2024/03/24 13:56:46;;;;;;;;;;;18.20;62.30;;;;;;5018784;28;1297;-70
2024/03/24 13:59:12;;;;;;;;;;;18.30;62.30;;;;;;5033435;28;1439;-70
2024/03/24 14:01:38;;;;;;;;;;;18.20;62.20;;;;;;4999183;28;1559;-70
2024/03/24 14:04:03;;;;;;;;;;;18.30;62.20;;;;;;5032497;28;1358;-70
2024/03/24 14:06:29;;;;;;;;;;;18.20;62.20;;;;;;5019706;28;1199;-70
2024/03/24 14:08:55;;;;;;;;;;;18.30;62.20;;;;;;5035303;28;1910;-70
2024/03/24 14:11:20;;;;;;;;;;;18.30;62.20;;;;;;5018373;28;1488;-70
2024/03/24 14:14:04;;;;;;;;;;;18.30;62.20;;;;;;5001847;28;1455;-71
2024/03/24 14:16:36;;;;;;;;;;;18.30;62.20;;;;;;5000411;28;1864;-70
2024/03/24 14:19:07;;;;;;;;;;;18.30;62.20;;;;;;5003445;28;1327;-70
2024/03/24 14:21:40;;;;;;;;;;;18.30;62.20;;;;;;5009234;28;868;-70
2024/03/24 14:24:05;;;;;;;;;;;18.30;62.20;;;;;;5027595;28;1340;-70